Time;durP1;ratioP1;P1;durP2;ratioP2;P2;SDS_P1;SDS_P2;PMS_P1;PMS_P2;Temp;Humidity;BMP_temperature;BMP_pressure;BME280_temperature;BME280_humidity;BME280_pressure;Samples;Min_cycle;Max_cycle;Signal;HPM_P1;HPM_P2
2023/12/27 00:02:03;;;;;;;2.90;0.70;;;;;;;;;;5074917;28;20381;-73
2023/12/27 00:04:30;;;;;;;6.60;1.10;;;;;;;;;;5058762;28;20214;-72
2023/12/27 00:06:56;;;;;;;4.17;0.97;;;;;;;;;;5058595;28;20284;-72
2023/12/27 00:09:23;;;;;;;3.60;0.67;;;;;;;;;;5074853;28;20192;-73
2023/12/27 00:11:50;;;;;;;11.43;1.77;;;;;;;;;;5042459;28;20194;-73
2023/12/27 00:14:16;;;;;;;6.30;0.83;;;;;;;;;;5074400;28;20243;-73
2023/12/27 00:16:43;;;;;;;4.43;0.90;;;;;;;;;;5057888;28;20268;-72
2023/12/27 00:19:10;;;;;;;5.03;1.10;;;;;;;;;;5058203;28;20933;-72
2023/12/27 00:21:53;;;;;;;5.53;1.10;;;;;;;;;;5060758;28;20220;-72
2023/12/27 00:24:20;;;;;;;3.87;0.83;;;;;;;;;;5074461;28;20210;-73
2023/12/27 00:26:47;;;;;;;7.20;1.43;;;;;;;;;;5074481;28;20218;-73
2023/12/27 00:29:13;;;;;;;2.70;0.83;;;;;;;;;;5041343;28;20198;-72
2023/12/27 00:31:40;;;;;;;5.60;0.70;;;;;;;;;;5058549;28;20192;-72
2023/12/27 00:34:07;;;;;;;3.57;0.90;;;;;;;;;;5075014;28;20209;-73
2023/12/27 00:36:34;;;;;;;4.13;1.30;;;;;;;;;;5057711;28;20193;-72
2023/12/27 00:39:03;;;;;;;3.90;1.07;;;;;;;;;;5057597;28;20190;-73
2023/12/27 00:41:47;;;;;;;3.53;0.83;;;;;;;;;;5046931;28;20474;-72
2023/12/27 00:44:14;;;;;;;6.83;1.13;;;;;;;;;;5056927;28;20722;-72
2023/12/27 00:46:59;;;;;;;4.33;0.97;;;;;;;;;;5060248;28;20291;-73
2023/12/27 00:49:25;;;;;;;4.77;0.97;;;;;;;;;;5057528;28;20193;-73
2023/12/27 00:52:10;;;;;;;6.83;1.07;;;;;;;;;;5074521;28;20174;-74
2023/12/27 00:54:38;;;;;;;1.30;0.43;;;;;;;;;;5041298;28;20435;-73
2023/12/27 00:57:22;;;;;;;7.10;1.10;;;;;;;;;;5074360;28;20906;-73
2023/12/27 00:59:48;;;;;;;5.43;0.80;;;;;;;;;;5073624;28;20463;-73
2023/12/27 01:02:16;;;;;;;4.73;0.87;;;;;;;;;;5073720;28;20532;-73
2023/12/27 01:04:42;;;;;;;3.73;0.70;;;;;;;;;;5073296;28;20462;-73
2023/12/27 01:07:09;;;;;;;4.50;0.90;;;;;;;;;;5057218;28;20186;-73
2023/12/27 01:09:53;;;;;;;4.40;0.93;;;;;;;;;;5075169;28;20216;-73
2023/12/27 01:12:20;;;;;;;2.60;0.77;;;;;;;;;;5073490;28;20375;-73
2023/12/27 01:47:18;;;;;;;5.13;0.87;;;;;;;;;;4531756;28;20999;-73
2023/12/27 01:49:45;;;;;;;3.93;0.87;;;;;;;;;;5036342;28;20433;-73
2023/12/27 01:52:12;;;;;;;5.37;1.10;;;;;;;;;;5019574;28;20194;-73
2023/12/27 01:54:39;;;;;;;6.40;0.70;;;;;;;;;;5036087;28;20804;-73
2023/12/27 01:57:06;;;;;;;2.57;0.70;;;;;;;;;;5052911;28;20440;-73
2023/12/27 01:59:32;;;;;;;6.67;0.90;;;;;;;;;;5036253;28;20436;-74
2023/12/27 02:01:59;;;;;;;4.20;1.13;;;;;;;;;;5036225;28;20421;-74
2023/12/27 02:04:26;;;;;;;4.07;1.20;;;;;;;;;;5056959;28;20201;-72
2023/12/27 02:06:54;;;;;;;4.53;1.00;;;;;;;;;;5073178;28;20982;-73
2023/12/27 02:09:20;;;;;;;4.63;0.80;;;;;;;;;;5072614;28;20519;-73
2023/12/27 02:11:47;;;;;;;3.03;0.90;;;;;;;;;;5056071;28;20981;-73
2023/12/27 02:14:15;;;;;;;7.00;1.07;;;;;;;;;;5056190;28;20198;-73
2023/12/27 02:16:42;;;;;;;3.83;1.00;;;;;;;;;;5072712;28;20182;-73
2023/12/27 02:19:26;;;;;;;4.87;1.13;;;;;;;;;;5058729;28;20725;-73
2023/12/27 02:21:53;;;;;;;5.17;1.23;;;;;;;;;;5072442;28;20420;-73
2023/12/27 02:24:20;;;;;;;5.27;1.00;;;;;;;;;;5055865;28;20206;-73
2023/12/27 02:26:46;;;;;;;2.80;1.10;;;;;;;;;;5072591;28;20592;-73
2023/12/27 02:29:13;;;;;;;4.73;1.87;;;;;;;;;;5056644;28;20558;-73
2023/12/27 02:31:40;;;;;;;2.90;0.80;;;;;;;;;;5072862;28;20503;-73
2023/12/27 02:34:07;;;;;;;3.40;0.70;;;;;;;;;;5072661;28;20908;-74
2023/12/27 02:36:35;;;;;;;4.97;0.90;;;;;;;;;;5072412;28;20429;-73
2023/12/27 02:39:02;;;;;;;6.23;0.90;;;;;;;;;;5072355;28;20186;-73
2023/12/27 02:41:29;;;;;;;5.03;0.93;;;;;;;;;;5056403;28;20760;-73
2023/12/27 02:43:56;;;;;;;4.17;1.00;;;;;;;;;;5055626;28;20510;-73
2023/12/27 02:46:22;;;;;;;6.57;0.90;;;;;;;;;;5055792;28;20182;-73
2023/12/27 02:48:49;;;;;;;2.60;0.70;;;;;;;;;;5072649;28;20230;-73
2023/12/27 02:51:16;;;;;;;6.10;0.90;;;;;;;;;;5072761;28;20189;-73
2023/12/27 02:53:43;;;;;;;3.60;0.60;;;;;;;;;;5055577;28;20200;-73
2023/12/27 02:56:09;;;;;;;4.70;1.10;;;;;;;;;;5073480;28;20265;-73
2023/12/27 02:58:37;;;;;;;5.30;1.27;;;;;;;;;;5072932;28;20267;-73
2023/12/27 03:01:04;;;;;;;3.67;1.20;;;;;;;;;;5073988;28;20273;-73
2023/12/27 03:03:31;;;;;;;5.43;0.80;;;;;;;;;;5072561;28;20190;-73
2023/12/27 03:05:57;;;;;;;5.20;1.20;;;;;;;;;;5076177;28;20657;-73
2023/12/27 03:08:24;;;;;;;5.60;0.83;;;;;;;;;;5076564;28;20208;-72
2023/12/27 03:10:51;;;;;;;5.90;1.40;;;;;;;;;;5042900;28;20190;-73
2023/12/27 03:13:17;;;;;;;6.17;1.10;;;;;;;;;;5059338;28;20631;-73
2023/12/27 03:16:06;;;;;;;6.80;1.57;;;;;;;;;;5077260;28;20170;-73
2023/12/27 03:18:33;;;;;;;4.87;1.00;;;;;;;;;;5059251;28;20255;-73
2023/12/27 03:21:00;;;;;;;2.50;0.90;;;;;;;;;;5042735;28;20277;-74
2023/12/27 03:23:26;;;;;;;6.03;1.20;;;;;;;;;;5075792;28;20288;-73
2023/12/27 03:25:53;;;;;;;2.93;0.87;;;;;;;;;;5058971;28;20209;-73
2023/12/27 03:28:37;;;;;;;6.53;1.03;;;;;;;;;;5075834;28;20166;-73
2023/12/27 03:31:03;;;;;;;5.60;1.03;;;;;;;;;;5075519;28;20216;-73
2023/12/27 03:33:30;;;;;;;4.60;0.90;;;;;;;;;;5075228;28;20448;-73
2023/12/27 03:35:57;;;;;;;4.20;1.10;;;;;;;;;;5042560;28;20645;-73
2023/12/27 03:38:24;;;;;;;4.37;1.03;;;;;;;;;;5075461;28;20269;-73
2023/12/27 03:40:50;;;;;;;6.17;1.00;;;;;;;;;;5075400;28;20193;-74
2023/12/27 03:43:18;;;;;;;9.03;1.33;;;;;;;;;;5059117;28;20186;-73
2023/12/27 03:45:45;;;;;;;6.87;1.43;;;;;;;;;;5076719;28;20206;-73
2023/12/27 03:48:29;;;;;;;5.27;1.00;;;;;;;;;;5046527;28;20222;-73
2023/12/27 03:50:56;;;;;;;8.50;1.30;;;;;;;;;;5075219;28;20412;-73
2023/12/27 03:53:22;;;;;;;6.57;1.00;;;;;;;;;;5074920;28;20182;-73
2023/12/27 03:55:49;;;;;;;6.73;1.30;;;;;;;;;;5058498;28;20947;-73
2023/12/27 03:58:16;;;;;;;4.73;1.17;;;;;;;;;;5058514;28;20436;-73
2023/12/27 04:00:42;;;;;;;3.83;1.10;;;;;;;;;;5058972;28;20733;-73
2023/12/27 04:03:09;;;;;;;4.27;0.80;;;;;;;;;;5053779;28;20191;-73
2023/12/27 04:05:36;;;;;;;5.63;1.43;;;;;;;;;;5038313;28;20241;-73
2023/12/27 04:08:06;;;;;;;3.87;1.23;;;;;;;;;;5054834;28;20680;-73
2023/12/27 04:10:35;;;;;;;10.07;1.63;;;;;;;;;;5054641;28;20788;-73
2023/12/27 04:13:02;;;;;;;5.57;1.60;;;;;;;;;;5056006;28;20197;-73
2023/12/27 04:15:30;;;;;;;3.57;1.03;;;;;;;;;;5038128;28;20215;-73
2023/12/27 04:17:57;;;;;;;3.77;1.00;;;;;;;;;;5054581;28;20190;-73
2023/12/27 04:20:24;;;;;;;5.37;1.07;;;;;;;;;;5054490;28;20221;-73
2023/12/27 04:23:08;;;;;;;5.87;1.40;;;;;;;;;;5054604;28;20210;-73
2023/12/27 04:25:35;;;;;;;5.03;1.00;;;;;;;;;;5056255;28;20534;-73
2023/12/27 04:28:02;;;;;;;6.77;1.20;;;;;;;;;;5054975;28;20202;-73
2023/12/27 04:30:29;;;;;;;5.10;1.10;;;;;;;;;;5037827;28;20467;-73
2023/12/27 04:32:55;;;;;;;8.27;1.40;;;;;;;;;;5054352;28;20196;-73
2023/12/27 04:35:22;;;;;;;3.67;1.10;;;;;;;;;;5054320;28;20541;-73
2023/12/27 04:37:49;;;;;;;3.13;0.90;;;;;;;;;;5070947;28;20245;-73
2023/12/27 04:40:15;;;;;;;7.37;1.13;;;;;;;;;;5055509;28;20182;-73
2023/12/27 04:42:42;;;;;;;6.27;1.37;;;;;;;;;;5055192;28;20218;-80
2023/12/27 04:45:09;;;;;;;3.67;0.93;;;;;;;;;;5055343;28;20226;-79
2023/12/27 04:51:44;;;;;;;5.40;1.03;;;;;;;;;;5065060;28;20286;-73
2023/12/27 04:58:12;;;;;;;6.57;1.10;;;;;;;;;;5074933;28;20236;-73
2023/12/27 05:00:39;;;;;;;9.27;1.20;;;;;;;;;;5075121;28;20185;-73
2023/12/27 05:03:07;;;;;;;7.20;1.13;;;;;;;;;;5073765;28;20280;-73
2023/12/27 05:05:39;;;;;;;6.97;1.37;;;;;;;;;;5057854;28;20201;-76
2023/12/27 05:08:24;;;;;;;5.90;1.20;;;;;;;;;;5073635;28;20169;-74
2023/12/27 05:10:51;;;;;;;6.43;1.40;;;;;;;;;;5074899;28;20182;-74
2023/12/27 05:13:20;;;;;;;4.70;1.10;;;;;;;;;;5073495;28;20208;-74
2023/12/27 05:15:47;;;;;;;4.77;0.60;;;;;;;;;;5073431;28;20212;-74
2023/12/27 05:18:14;;;;;;;5.77;1.00;;;;;;;;;;5073533;28;20231;-74
2023/12/27 05:20:41;;;;;;;7.27;1.30;;;;;;;;;;5074424;28;20178;-72
2023/12/27 05:23:07;;;;;;;4.57;1.40;;;;;;;;;;5074573;28;20259;-72
2023/12/27 05:25:34;;;;;;;2.60;0.80;;;;;;;;;;5073156;28;20209;-71
2023/12/27 05:28:01;;;;;;;7.93;1.17;;;;;;;;;;5072691;28;20432;-72
2023/12/27 05:30:28;;;;;;;5.80;1.20;;;;;;;;;;5074244;28;20194;-72
2023/12/27 05:32:54;;;;;;;10.23;1.50;;;;;;;;;;5074110;28;20240;-72
2023/12/27 05:35:38;;;;;;;2.83;0.90;;;;;;;;;;5074668;28;20212;-72
2023/12/27 05:38:05;;;;;;;4.60;0.77;;;;;;;;;;5074087;28;20193;-71
2023/12/27 05:40:50;;;;;;;6.60;1.23;;;;;;;;;;5074910;28;20817;-75
2023/12/27 05:43:17;;;;;;;6.57;1.27;;;;;;;;;;5074274;28;20251;-74
2023/12/27 05:45:44;;;;;;;4.27;1.20;;;;;;;;;;5056556;28;20289;-73
2023/12/27 05:48:12;;;;;;;6.13;1.10;;;;;;;;;;5072857;28;20601;-73
2023/12/27 05:50:39;;;;;;;8.70;1.30;;;;;;;;;;5072654;28;20451;-74
2023/12/27 05:53:05;;;;;;;4.37;1.10;;;;;;;;;;5072725;28;20182;-73
2023/12/27 05:55:32;;;;;;;8.70;1.23;;;;;;;;;;5072979;28;20244;-76
2023/12/27 05:57:59;;;;;;;9.50;1.77;;;;;;;;;;5072933;28;20470;-76
2023/12/27 06:00:43;;;;;;;5.90;1.30;;;;;;;;;;5073366;28;20259;-75
2023/12/27 06:03:10;;;;;;;5.47;1.20;;;;;;;;;;5073740;28;20212;-76
2023/12/27 06:05:37;;;;;;;4.70;1.20;;;;;;;;;;5073868;28;20210;-74
2023/12/27 06:08:03;;;;;;;7.03;1.10;;;;;;;;;;5073769;28;20486;-74
2023/12/27 06:10:30;;;;;;;4.33;1.20;;;;;;;;;;5073692;28;20972;-73
2023/12/27 06:12:57;;;;;;;6.17;1.00;;;;;;;;;;5073877;28;20412;-75
2023/12/27 06:15:24;;;;;;;3.40;1.13;;;;;;;;;;5072304;28;20204;-72
2023/12/27 06:17:51;;;;;;;6.00;1.00;;;;;;;;;;5056132;28;20469;-73
2023/12/27 06:20:36;;;;;;;7.13;1.03;;;;;;;;;;5072499;28;21034;-74
2023/12/27 06:23:03;;;;;;;7.67;1.20;;;;;;;;;;5055955;28;20483;-73
2023/12/27 06:25:29;;;;;;;5.10;1.53;;;;;;;;;;5072332;28;20451;-75
2023/12/27 06:27:56;;;;;;;6.30;1.10;;;;;;;;;;5055838;28;20447;-75
2023/12/27 06:30:23;;;;;;;6.13;1.40;;;;;;;;;;5072602;28;20450;-73
2023/12/27 06:32:51;;;;;;;7.03;1.10;;;;;;;;;;5072359;28;20440;-72
2023/12/27 06:35:18;;;;;;;4.87;1.30;;;;;;;;;;5072232;28;20464;-74
2023/12/27 06:37:44;;;;;;;8.47;1.40;;;;;;;;;;5039998;28;20432;-73
2023/12/27 06:40:12;;;;;;;5.17;1.10;;;;;;;;;;5076361;28;20255;-73
2023/12/27 06:42:39;;;;;;;7.07;1.40;;;;;;;;;;5076383;28;20235;-72
2023/12/27 06:45:06;;;;;;;8.07;1.17;;;;;;;;;;5076233;28;20860;-71
2023/12/27 06:47:51;;;;;;;8.23;1.53;;;;;;;;;;5077951;28;20839;-70
2023/12/27 06:50:18;;;;;;;7.30;1.50;;;;;;;;;;5059459;28;20490;-72
2023/12/27 06:52:44;;;;;;;6.40;1.20;;;;;;;;;;5064091;28;21648;-72
2023/12/27 06:55:12;;;;;;;8.77;1.80;;;;;;;;;;5066948;28;20186;-72
2023/12/27 06:57:39;;;;;;;4.17;1.10;;;;;;;;;;5050876;28;20443;-74
2023/12/27 07:00:07;;;;;;;6.03;1.00;;;;;;;;;;5067159;28;20190;-74
2023/12/27 07:02:34;;;;;;;5.73;1.20;;;;;;;;;;5066984;28;20435;-73
2023/12/27 07:05:02;;;;;;;5.33;1.30;;;;;;;;;;5050019;28;20240;-72
2023/12/27 07:07:29;;;;;;;7.37;1.20;;;;;;;;;;5066742;28;20527;-74
2023/12/27 07:09:57;;;;;;;5.77;1.30;;;;;;;;;;5066950;28;20201;-74
2023/12/27 07:12:24;;;;;;;7.40;1.50;;;;;;;;;;5068441;28;20428;-75
2023/12/27 07:14:51;;;;;;;7.10;1.47;;;;;;;;;;5068286;28;20641;-74
2023/12/27 07:17:20;;;;;;;9.27;1.63;;;;;;;;;;5068200;28;20752;-73
2023/12/27 07:19:47;;;;;;;5.90;1.13;;;;;;;;;;5066411;28;20431;-74
2023/12/27 07:22:14;;;;;;;6.23;1.20;;;;;;;;;;5067557;28;20256;-74
2023/12/27 07:24:41;;;;;;;8.97;1.23;;;;;;;;;;5049742;28;20456;-71
2023/12/27 07:27:09;;;;;;;10.10;1.80;;;;;;;;;;5049885;28;20218;-71
2023/12/27 07:29:39;;;;;;;6.70;1.53;;;;;;;;;;5066339;28;20193;-71
2023/12/27 07:32:06;;;;;;;5.07;1.50;;;;;;;;;;5050189;28;20472;-70
2023/12/27 07:34:32;;;;;;;3.20;0.80;;;;;;;;;;5052616;28;20187;-70
2023/12/27 07:36:59;;;;;;;5.10;1.20;;;;;;;;;;5046990;28;20436;-71
2023/12/27 07:39:26;;;;;;;6.43;1.30;;;;;;;;;;5029944;28;20433;-71
2023/12/27 07:41:53;;;;;;;5.70;1.17;;;;;;;;;;5045877;28;20428;-72
2023/12/27 07:44:20;;;;;;;4.23;1.30;;;;;;;;;;5029727;28;20191;-70
2023/12/27 07:46:47;;;;;;;11.37;1.23;;;;;;;;;;5047010;28;20998;-71
2023/12/27 07:49:13;;;;;;;7.03;1.50;;;;;;;;;;5045253;28;20241;-71
2023/12/27 07:51:41;;;;;;;4.23;1.20;;;;;;;;;;5029187;28;20497;-72
2023/12/27 07:54:08;;;;;;;5.17;1.10;;;;;;;;;;5036347;28;20253;-71
2023/12/27 07:56:35;;;;;;;3.70;0.97;;;;;;;;;;5046219;28;20570;-70
2023/12/27 07:59:03;;;;;;;2.60;0.93;;;;;;;;;;5046928;28;20240;-70
2023/12/27 08:05:30;;;;;;;6.60;2.07;;;;;;;;;;5047347;28;20337;-71
2023/12/27 08:07:57;;;;;;;3.10;0.90;;;;;;;;;;5045989;28;20191;-71
2023/12/27 08:10:25;;;;;;;7.47;1.50;;;;;;;;;;5045749;28;20487;-71
2023/12/27 08:12:52;;;;;;;6.30;1.57;;;;;;;;;;5046760;28;20232;-70
2023/12/27 08:15:19;;;;;;;4.80;1.80;;;;;;;;;;5046594;28;20410;-72
2023/12/27 08:17:46;;;;;;;6.13;1.43;;;;;;;;;;5045655;28;20198;-72
2023/12/27 08:20:13;;;;;;;5.97;1.70;;;;;;;;;;5046687;28;20190;-70
2023/12/27 08:22:42;;;;;;;6.87;2.10;;;;;;;;;;5046856;28;20457;-71
2023/12/27 08:25:12;;;;;;;8.07;1.47;;;;;;;;;;5028837;28;20343;-72
2023/12/27 08:27:39;;;;;;;8.37;2.50;;;;;;;;;;5045141;28;20195;-71
2023/12/27 08:30:06;;;;;;;8.40;1.90;;;;;;;;;;5044955;28;20542;-71
2023/12/27 08:32:33;;;;;;;6.53;2.00;;;;;;;;;;5044989;28;20198;-74
2023/12/27 08:35:00;;;;;;;10.33;1.90;;;;;;;;;;5028567;28;20316;-72
2023/12/27 08:37:27;;;;;;;5.77;2.87;;;;;;;;;;5044958;28;20190;-71
2023/12/27 08:39:54;;;;;;;8.43;2.20;;;;;;;;;;5044604;28;20190;-74
2023/12/27 08:42:21;;;;;;;3.73;1.27;;;;;;;;;;5046431;28;20281;-69
2023/12/27 08:44:48;;;;;;;4.20;1.43;;;;;;;;;;5046646;28;20274;-72
2023/12/27 08:47:15;;;;;;;5.10;1.70;;;;;;;;;;5028394;28;20218;-73
2023/12/27 08:49:42;;;;;;;9.23;2.03;;;;;;;;;;5046761;28;20195;-72
2023/12/27 08:52:09;;;;;;;6.07;1.93;;;;;;;;;;5046218;28;20197;-72
2023/12/27 08:54:36;;;;;;;17.27;7.07;;;;;;;;;;5034646;28;20461;-72
2023/12/27 08:57:03;;;;;;;8.20;2.73;;;;;;;;;;5044566;28;20761;-71
2023/12/27 08:59:29;;;;;;;5.63;1.80;;;;;;;;;;5045842;28;20190;-72
2023/12/27 09:01:56;;;;;;;7.53;2.57;;;;;;;;;;5043421;28;20333;-76
2023/12/27 09:04:23;;;;;;;12.20;2.60;;;;;;;;;;5045921;28;20190;-73
2023/12/27 09:06:53;;;;;;;33.30;12.77;;;;;;;;;;5045678;28;20211;-71
2023/12/27 09:09:21;;;;;;;19.90;7.23;;;;;;;;;;5045807;28;20186;-71
2023/12/27 09:11:48;;;;;;;36.57;15.30;;;;;;;;;;5045977;28;20191;-70
2023/12/27 09:14:17;;;;;;;9.83;2.23;;;;;;;;;;5045712;28;20207;-70
2023/12/27 09:16:46;;;;;;;11.17;2.57;;;;;;;;;;5047916;28;20190;-70
2023/12/27 09:19:16;;;;;;;14.67;4.00;;;;;;;;;;5061441;28;20190;-71
2023/12/27 09:21:44;;;;;;;6.00;1.93;;;;;;;;;;5045132;28;20206;-70
2023/12/27 09:24:12;;;;;;;44.87;13.90;;;;;;;;;;5058218;28;20193;-69
2023/12/27 09:26:39;;;;;;;4.77;1.70;;;;;;;;;;5030977;28;20213;-70
2023/12/27 09:29:10;;;;;;;9.13;1.93;;;;;;;;;;5065650;28;20200;-69
2023/12/27 09:31:37;;;;;;;7.77;2.77;;;;;;;;;;5065156;28;20190;-70
2023/12/27 09:34:05;;;;;;;9.97;2.40;;;;;;;;;;5064335;28;20301;-69
2023/12/27 09:36:32;;;;;;;7.43;2.57;;;;;;;;;;5064920;28;20712;-69
2023/12/27 09:39:17;;;;;;;6.57;1.73;;;;;;;;;;5048154;28;21817;-70
2023/12/27 09:41:44;;;;;;;8.70;2.23;;;;;;;;;;5043506;28;20199;-71
2023/12/27 09:44:12;;;;;;;12.13;5.23;;;;;;;;;;5045125;28;20246;-71
2023/12/27 09:46:39;;;;;;;10.27;5.73;;;;;;;;;;5043639;28;20210;-71
2023/12/27 09:49:07;;;;;;;8.40;2.77;;;;;;;;;;5055880;28;20231;-70
2023/12/27 09:51:52;;;;;;;13.20;2.87;;;;;;;;;;5060780;28;20593;-68
2023/12/27 09:54:20;;;;;;;5.27;1.67;;;;;;;;;;5035971;28;20829;-72
2023/12/27 09:56:48;;;;;;;8.80;1.97;;;;;;;;;;5062788;28;20248;-72
2023/12/27 09:59:18;;;;;;;8.10;2.43;;;;;;;;;;5065194;28;20544;-72
2023/12/27 10:01:46;;;;;;;7.13;2.00;;;;;;;;;;5063783;28;20190;-69
2023/12/27 10:04:35;;;;;;;8.50;1.97;;;;;;;;;;5064578;28;20197;-69
2023/12/27 10:07:02;;;;;;;7.27;1.83;;;;;;;;;;5074509;28;20716;-71
2023/12/27 10:09:29;;;;;;;7.77;2.20;;;;;;;;;;5072322;28;20227;-74
2023/12/27 10:11:56;;;;;;;11.70;2.03;;;;;;;;;;5054644;28;20527;-73
2023/12/27 10:14:23;;;;;;;8.87;1.93;;;;;;;;;;5074087;28;20186;-73
2023/12/27 10:16:49;;;;;;;5.37;1.63;;;;;;;;;;5039709;28;20228;-74
2023/12/27 10:19:35;;;;;;;6.77;1.60;;;;;;;;;;5056153;28;20204;-73
2023/12/27 10:22:02;;;;;;;4.17;1.33;;;;;;;;;;5074352;28;20646;-74
2023/12/27 10:24:31;;;;;;;7.97;1.73;;;;;;;;;;5072818;28;20521;-74
2023/12/27 10:26:57;;;;;;;5.53;1.40;;;;;;;;;;5074002;28;20198;-73
2023/12/27 10:33:20;;;;;;;4.43;1.37;;;;;;;;;;5053923;28;20212;-73
2023/12/27 10:35:55;;;;;;;6.40;1.33;;;;;;;;;;5052496;28;20194;-74
2023/12/27 10:38:22;;;;;;;5.87;1.67;;;;;;;;;;5053615;28;20281;-74
2023/12/27 10:40:51;;;;;;;6.63;2.20;;;;;;;;;;5053537;28;20248;-74
2023/12/27 10:43:18;;;;;;;10.67;1.77;;;;;;;;;;5053995;28;20193;-74
2023/12/27 10:45:45;;;;;;;6.27;2.13;;;;;;;;;;5052451;28;20545;-73
2023/12/27 10:48:12;;;;;;;5.57;1.57;;;;;;;;;;5053484;28;20182;-73
2023/12/27 10:50:39;;;;;;;3.63;1.30;;;;;;;;;;5052318;28;20307;-74
2023/12/27 10:53:06;;;;;;;9.63;1.50;;;;;;;;;;5052428;28;20190;-74
2023/12/27 10:55:35;;;;;;;7.47;1.80;;;;;;;;;;5052761;28;20270;-74
2023/12/27 10:58:03;;;;;;;11.23;2.37;;;;;;;;;;5052788;28;20187;-74
2023/12/27 11:00:29;;;;;;;7.20;2.20;;;;;;;;;;5053801;28;20179;-74
2023/12/27 11:02:59;;;;;;;7.70;2.27;;;;;;;;;;5035763;28;20218;-74
2023/12/27 11:05:29;;;;;;;7.00;1.70;;;;;;;;;;5052976;28;20206;-74
2023/12/27 11:07:56;;;;;;;7.53;1.60;;;;;;;;;;5051970;28;20232;-74
2023/12/27 11:10:40;;;;;;;6.10;2.13;;;;;;;;;;5038094;28;20225;-74
2023/12/27 11:13:07;;;;;;;6.97;1.80;;;;;;;;;;5036005;28;20199;-74
2023/12/27 11:15:34;;;;;;;5.13;1.43;;;;;;;;;;5052132;28;20179;-74
2023/12/27 11:18:00;;;;;;;6.07;2.10;;;;;;;;;;5052166;28;20187;-74
2023/12/27 11:20:30;;;;;;;7.33;1.87;;;;;;;;;;5052183;28;20208;-74
2023/12/27 11:22:57;;;;;;;8.80;1.80;;;;;;;;;;5019174;28;20237;-74
2023/12/27 11:25:23;;;;;;;9.63;2.10;;;;;;;;;;5020962;28;20716;-74
2023/12/27 11:27:52;;;;;;;6.13;1.90;;;;;;;;;;5057305;28;20555;-74
2023/12/27 11:30:21;;;;;;;8.00;1.90;;;;;;;;;;5039971;28;20183;-75
2023/12/27 11:32:47;;;;;;;7.37;2.40;;;;;;;;;;5056004;28;20193;-74
2023/12/27 11:35:24;;;;;;;8.03;1.73;;;;;;;;;;5040184;28;20658;-74
2023/12/27 11:37:52;;;;;;;5.93;1.70;;;;;;;;;;5022947;28;20194;-74
2023/12/27 11:40:34;;;;;;;7.37;2.00;;;;;;;;;;5055708;28;20273;-74
2023/12/27 11:43:03;;;;;;;5.50;1.93;;;;;;;;;;5056072;28;20179;-74
2023/12/27 11:45:50;;;;;;;6.00;1.83;;;;;;;;;;5039085;28;20201;-74
2023/12/27 11:48:16;;;;;;;8.17;1.97;;;;;;;;;;5052261;28;20604;-75
2023/12/27 11:50:43;;;;;;;11.63;2.33;;;;;;;;;;5054518;28;20218;-74
2023/12/27 11:53:10;;;;;;;8.57;1.63;;;;;;;;;;5056228;28;20522;-74
2023/12/27 11:55:39;;;;;;;6.07;1.60;;;;;;;;;;5039125;28;20222;-74
2023/12/27 11:58:06;;;;;;;7.73;1.90;;;;;;;;;;5055318;28;20183;-73
2023/12/27 12:00:33;;;;;;;7.53;2.30;;;;;;;;;;5038913;28;20182;-75
2023/12/27 12:03:00;;;;;;;8.43;2.27;;;;;;;;;;5055138;28;20205;-74
2023/12/27 12:05:34;;;;;;;9.07;2.47;;;;;;;;;;5039428;28;20187;-74
2023/12/27 12:08:01;;;;;;;7.97;2.00;;;;;;;;;;5054560;28;20293;-74
2023/12/27 12:10:28;;;;;;;8.07;1.70;;;;;;;;;;5055384;28;20182;-74
2023/12/27 12:12:57;;;;;;;8.37;1.93;;;;;;;;;;5054741;28;20190;-74
2023/12/27 12:15:24;;;;;;;6.47;2.20;;;;;;;;;;5039067;28;20232;-74
2023/12/27 12:17:52;;;;;;;8.13;2.07;;;;;;;;;;5055349;28;20187;-74
2023/12/27 12:20:19;;;;;;;14.07;2.50;;;;;;;;;;5055486;28;20187;-74
2023/12/27 12:22:48;;;;;;;9.73;2.50;;;;;;;;;;5056748;28;20221;-74
2023/12/27 12:25:15;;;;;;;6.97;2.90;;;;;;;;;;5055799;28;20217;-74
2023/12/27 12:27:44;;;;;;;12.60;3.87;;;;;;;;;;5038922;28;20305;-74
2023/12/27 12:30:11;;;;;;;9.93;2.60;;;;;;;;;;5054697;28;20191;-74
2023/12/27 12:32:42;;;;;;;11.87;3.60;;;;;;;;;;5054707;28;20298;-74
2023/12/27 12:35:11;;;;;;;10.13;3.47;;;;;;;;;;5038780;28;20183;-74
2023/12/27 12:37:38;;;;;;;6.77;2.40;;;;;;;;;;5054491;28;20278;-74
2023/12/27 12:40:06;;;;;;;9.50;2.50;;;;;;;;;;5054271;28;20191;-74
2023/12/27 12:42:33;;;;;;;7.03;2.20;;;;;;;;;;5054359;28;20538;-74
2023/12/27 12:45:02;;;;;;;11.87;2.90;;;;;;;;;;5055448;28;20205;-74
2023/12/27 12:47:28;;;;;;;8.93;2.50;;;;;;;;;;5037941;28;20689;-74
2023/12/27 12:49:55;;;;;;;7.60;2.37;;;;;;;;;;5053863;28;20178;-74
2023/12/27 12:52:22;;;;;;;12.37;3.27;;;;;;;;;;5054459;28;20626;-68
2023/12/27 12:54:49;;;;;;;9.73;3.30;;;;;;;;;;5055259;28;20281;-69
2023/12/27 12:57:16;;;;;;;10.10;2.33;;;;;;;;;;5054119;28;20186;-68
2023/12/27 12:59:43;;;;;;;9.80;2.40;;;;;;;;;;5053453;28;20654;-74
2023/12/27 13:02:10;;;;;;;9.27;3.00;;;;;;;;;;5052731;28;20211;-73
2023/12/27 13:04:38;;;;;;;9.77;3.00;;;;;;;;;;5054302;28;20702;-73
2023/12/27 13:07:25;;;;;;;12.83;2.63;;;;;;;;;;5068308;28;20182;-73
2023/12/27 13:09:52;;;;;;;19.20;3.40;;;;;;;;;;5073764;28;20277;-73
2023/12/27 13:12:19;;;;;;;15.80;3.50;;;;;;;;;;5073476;28;20194;-72
2023/12/27 13:14:46;;;;;;;15.63;3.73;;;;;;;;;;5074676;28;20182;-72
2023/12/27 13:17:12;;;;;;;12.03;3.00;;;;;;;;;;5073478;28;20187;-72
2023/12/27 13:19:39;;;;;;;6.97;2.53;;;;;;;;;;5065626;28;20514;-73
2023/12/27 13:22:08;;;;;;;8.13;1.90;;;;;;;;;;5029181;28;20269;-72
2023/12/27 13:24:35;;;;;;;7.50;1.93;;;;;;;;;;5054388;28;20185;-69
2023/12/27 13:27:06;;;;;;;8.07;2.13;;;;;;;;;;5061768;28;20304;-78
2023/12/27 13:29:33;;;;;;;11.33;2.53;;;;;;;;;;5056564;28;20220;-71
2023/12/27 13:32:01;;;;;;;12.03;2.40;;;;;;;;;;5064123;28;20213;-71
2023/12/27 13:34:29;;;;;;;10.93;2.60;;;;;;;;;;5054167;28;20186;-72
2023/12/27 13:36:56;;;;;;;10.47;3.00;;;;;;;;;;5056093;28;20245;-74
2023/12/27 13:39:24;;;;;;;13.33;3.57;;;;;;;;;;5044110;28;20207;-72
2023/12/27 13:41:53;;;;;;;10.03;2.70;;;;;;;;;;5046963;28;20190;-73
2023/12/27 13:44:20;;;;;;;12.97;2.60;;;;;;;;;;5030686;28;20233;-74
2023/12/27 13:46:47;;;;;;;14.13;2.37;;;;;;;;;;5047139;28;20202;-74
2023/12/27 13:49:14;;;;;;;7.13;2.00;;;;;;;;;;5046750;28;20573;-73
2023/12/27 13:51:41;;;;;;;11.30;2.10;;;;;;;;;;5046906;28;20222;-72
2023/12/27 13:54:09;;;;;;;9.27;2.90;;;;;;;;;;5047092;28;20631;-73
2023/12/27 13:56:53;;;;;;;13.63;3.17;;;;;;;;;;5063541;28;20274;-73
2023/12/27 13:59:20;;;;;;;13.93;3.07;;;;;;;;;;5063287;28;20194;-74
2023/12/27 14:01:47;;;;;;;11.60;3.10;;;;;;;;;;5046659;28;20194;-73
2023/12/27 14:04:14;;;;;;;13.17;3.50;;;;;;;;;;5063448;28;20229;-73
2023/12/27 14:06:40;;;;;;;7.80;2.87;;;;;;;;;;5064710;28;20531;-73
2023/12/27 14:09:08;;;;;;;12.33;4.00;;;;;;;;;;5046697;28;20436;-74
2023/12/27 14:11:35;;;;;;;11.63;3.60;;;;;;;;;;5064607;28;20209;-73
2023/12/27 14:14:03;;;;;;;14.50;3.73;;;;;;;;;;5064786;28;20432;-72
2023/12/27 14:20:32;;;;;;;17.23;5.07;;;;;;;;;;5044512;28;20194;-73
2023/12/27 14:31:07;;;;;;;17.27;4.23;;;;;;;;;;5047934;28;20475;-73
2023/12/27 14:33:35;;;;;;;15.60;5.63;;;;;;;;;;5048586;28;20528;-72
2023/12/27 14:36:04;;;;;;;15.97;4.90;;;;;;;;;;5055617;28;20433;-72
2023/12/27 14:38:38;;;;;;;16.50;5.20;;;;;;;;;;5048841;28;20530;-72
2023/12/27 14:41:06;;;;;;;21.10;4.80;;;;;;;;;;5063598;28;20437;-77
2023/12/27 14:43:33;;;;;;;12.17;4.10;;;;;;;;;;5054609;28;20436;-72
2023/12/27 14:46:00;;;;;;;15.27;4.40;;;;;;;;;;5042819;28;20195;-72
2023/12/27 14:48:32;;;;;;;16.07;4.47;;;;;;;;;;5044061;28;20469;-73
2023/12/27 14:51:00;;;;;;;13.87;4.87;;;;;;;;;;5042488;28;20457;-71
2023/12/27 14:53:27;;;;;;;19.93;6.13;;;;;;;;;;5034028;28;20227;-72
2023/12/27 14:55:54;;;;;;;17.10;5.20;;;;;;;;;;5061494;28;20471;-73
2023/12/27 14:58:21;;;;;;;13.80;5.07;;;;;;;;;;5044418;28;20287;-72
2023/12/27 15:00:48;;;;;;;18.17;4.17;;;;;;;;;;5047819;28;20437;-73
2023/12/27 15:03:15;;;;;;;14.33;5.07;;;;;;;;;;5062780;28;20449;-72
2023/12/27 15:05:45;;;;;;;18.27;4.90;;;;;;;;;;5050260;28;20233;-71
2023/12/27 15:08:12;;;;;;;14.93;4.60;;;;;;;;;;5066574;28;20225;-71
2023/12/27 15:10:39;;;;;;;15.83;3.27;;;;;;;;;;5068148;28;20197;-70
2023/12/27 15:13:06;;;;;;;10.83;3.80;;;;;;;;;;5067952;28;20446;-70
2023/12/27 15:15:36;;;;;;;12.63;3.80;;;;;;;;;;5070105;28;20280;-70
2023/12/27 15:18:04;;;;;;;15.30;3.57;;;;;;;;;;5040457;28;20613;-71
2023/12/27 15:20:32;;;;;;;14.67;4.50;;;;;;;;;;5055590;28;20217;-71
2023/12/27 15:23:02;;;;;;;12.90;4.20;;;;;;;;;;5056940;28;20452;-71
2023/12/27 15:25:29;;;;;;;17.70;4.20;;;;;;;;;;5056187;28;20171;-71
2023/12/27 15:27:56;;;;;;;13.70;4.53;;;;;;;;;;5057362;28;20542;-71
2023/12/27 15:30:24;;;;;;;12.40;4.20;;;;;;;;;;5055469;28;20427;-70
2023/12/27 15:32:51;;;;;;;17.33;4.47;;;;;;;;;;5056580;28;20278;-71
2023/12/27 15:35:19;;;;;;;22.23;7.00;;;;;;;;;;5056814;28;20202;-71
2023/12/27 15:37:47;;;;;;;20.53;6.23;;;;;;;;;;5067331;28;20784;-71
2023/12/27 15:40:14;;;;;;;18.33;6.07;;;;;;;;;;5055747;28;20429;-71
2023/12/27 15:42:42;;;;;;;16.63;5.80;;;;;;;;;;5045950;28;20478;-70
2023/12/27 15:45:10;;;;;;;14.40;5.43;;;;;;;;;;5061783;28;20466;-73
2023/12/27 15:47:37;;;;;;;15.63;5.53;;;;;;;;;;5045593;28;20464;-70
2023/12/27 15:50:04;;;;;;;14.80;4.90;;;;;;;;;;5046896;28;20488;-72